Latest Coastal Weather Observations for Point Fawcett

IDD60701

Issued at 8:41 pm CST Wednesday 25 May 2016 (issued every 10 minutes, with the page automatically refreshed every 10 minutes)

About coastal observations | Map of coastal stations | Coastal observations for NT | Marine services | Other Formats
Station Details ID: 200731 Name: POINT FAWCETT Lat: -11.76 Lon: 130.03 Height: 6.5 m
Data from the previous 72 hours. | See also: Recent months at Point Fawcett
Date/Time
CST
Temp

°C
Wind Pressure Rain
since 9am
mm
Weather Cloud Vis
km
Sea
Height
m
Swell
Dir
 
Speed
knots
Gust
knots
hPa Trend Height
m
Period
s
Dir
25/08:30pm 25.0 CALM 0 0 1012.2 - 0.0 - - - - - - -
25/08:00pm 25.5 CALM 0 0 1011.7 - 0.0 - - - - - - -
25/07:30pm 26.2 W 3 5 1011.4 - 0.0 - - - - - - -
25/07:00pm 27.2 W 4 5 1011.1 - 0.0 - - - - - - -
25/06:30pm 28.9 W 4 6 1011.0 - 0.0 - - - - - - -
25/06:00pm 30.2 W 5 7 1010.7 - 0.0 - - - - - - -
25/05:30pm 31.0 WSW 5 8 1010.4 - 0.0 - - - - - - -
25/05:00pm 30.8 WSW 5 8 1010.1 - 0.0 - - - - - - -
25/04:30pm 31.6 W 5 8 1010.0 - 0.0 - - - - - - -
25/04:00pm 31.6 WSW 5 7 1010.0 - 0.0 - - - - - - -
25/03:30pm 32.0 WSW 6 8 1010.0 - 0.0 - - - - - - -
25/03:00pm 31.8 WSW 6 9 1010.1 - 0.0 - - - - - - -
25/02:30pm 32.2 WSW 6 8 1010.4 - 0.0 - - - - - - -
25/02:00pm 31.9 WSW 6 9 1010.7 - 0.0 - - - - - - -
25/01:30pm 31.7 WSW 6 8 1011.2 - 0.0 - - - - - - -
25/01:00pm 30.3 WSW 7 9 1011.6 - 0.0 - - - - - - -
25/12:30pm 30.3 SW 7 10 1011.8 - 0.0 - - - - - - -
25/12:00pm 31.2 SW 7 11 1012.1 - 0.0 - - - - - - -
25/11:30am 31.5 SSW 6 9 1012.5 - 0.0 - - - - - - -
25/11:00am 29.7 SSW 5 7 1012.8 - 0.0 - - - - - - -
25/10:30am 30.2 SSW 5 6 1012.9 - 0.0 - - - - - - -
25/10:00am 30.6 E 2 5 1013.1 - 0.0 - - - - - - -
25/09:30am 30.0 ESE 3 4 1013.2 - 0.0 - - - - - - -
25/09:00am 28.7 CALM 0 3 1013.0 - 0.0 - - - - - - -
25/08:30am 26.9 SE 2 3 1012.8 - 0.0 - - - - - - -
25/08:00am 24.5 ESE 3 4 1012.5 - 0.0 - - - - - - -
25/07:30am 22.9 ESE 4 5 1012.3 - 0.0 - - - - - - -
25/07:00am 22.5 ESE 4 4 1012.0 - 0.0 - - - - - - -
25/06:30am 22.6 SE 4 5 1011.7 - 0.0 - - - - - - -
25/06:00am 22.6 ESE 3 4 1011.3 - 0.0 - - - - - - -
25/05:30am 22.7 ESE 2 3 1011.1 - 0.0 - - - - - - -
25/05:00am 22.9 SE 4 4 1010.9 - 0.0 - - - - - - -
25/04:30am 23.0 ESE 4 4 1010.9 - 0.0 - - - - - - -
25/04:00am 23.5 ESE 4 4 1011.2 - 0.0 - - - - - - -
25/03:30am 23.4 ESE 4 4 1011.2 - 0.0 - - - - - - -
25/03:00am 23.0 ESE 4 4 1011.3 - 0.0 - - - - - - -
25/02:30am 23.1 CALM 0 4 1011.5 - 0.0 - - - - - - -
25/02:00am 22.9 CALM 0 0 1011.7 - 0.0 - - - - - - -
25/01:30am 23.1 CALM 0 0 1011.7 - 0.0 - - - - - - -
25/01:00am 23.1 CALM 0 2 1011.9 - 0.0 - - - - - - -
25/12:30am 23.2 S 3 3 1012.1 - 0.0 - - - - - - -
25/12:00am 23.4 CALM 0 0 1012.3 - 0.0 - - - - - - -
 
Date/Time
CST
Temp

°C
Wind Pressure Rain
since 9am
mm
Weather Cloud Vis
km
Sea
Height
m
Swell
Dir
 
Speed
knots
Gust
knots
hPa Trend Height
m
Period
s
Dir
24/11:30pm 23.5 CALM 0 0 1012.6 - 0.0 - - - - - - -
24/11:00pm 23.6 CALM 0 0 1012.6 - 0.0 - - - - - - -
24/10:30pm 23.8 CALM 0 0 1012.5 - 0.0 - - - - - - -
24/10:00pm 24.0 CALM 0 0 1012.4 - 0.0 - - - - - - -
24/09:30pm 24.3 SE 3 4 1012.4 - 0.0 - - - - - - -
24/09:00pm 24.6 SE 3 4 1012.0 - 0.0 - - - - - - -
24/08:30pm 24.9 SE 4 4 1011.8 - 0.0 - - - - - - -
24/08:00pm 25.3 SSE 3 4 1011.3 - 0.0 - - - - - - -
24/07:30pm 25.9 S 4 5 1011.2 - 0.0 - - - - - - -
24/07:00pm 26.9 S 4 5 1010.8 - 0.0 - - - - - - -
24/06:30pm 28.6 S 3 6 1010.8 - 0.0 - - - - - - -
24/06:00pm 30.6 SW 5 7 1010.3 - 0.0 - - - - - - -
24/05:30pm 31.1 SSW 5 7 1010.1 - 0.0 - - - - - - -
24/05:00pm 31.5 SW 5 8 1009.9 - 0.0 - - - - - - -
24/04:30pm 31.6 SW 5 8 1009.9 - 0.0 - - - - - - -
24/04:00pm 31.8 SW 5 9 1010.0 - 0.0 - - - - - - -
24/03:30pm 31.7 SW 6 10 1010.3 - 0.0 - - - - - - -
24/03:00pm 32.0 WSW 6 10 1010.4 - 0.0 - - - - - - -
24/02:30pm 31.9 SW 7 10 1010.7 - 0.0 - - - - - - -
24/02:00pm 32.6 SW 6 9 1011.1 - 0.0 - - - - - - -
24/01:30pm 32.7 S 5 7 1011.6 - 0.0 - - - - - - -
24/01:00pm 32.9 S 6 9 1011.9 - 0.0 - - - - - - -
24/12:30pm 32.1 WSW 6 8 1012.4 - 0.0 - - - - - - -
24/12:00pm 31.3 W 4 5 1012.7 - 0.0 - - - - - - -
24/11:30am 30.2 S 6 9 1013.4 - 0.0 - - - - - - -
24/11:00am 27.7 ESE 6 11 1013.8 - 0.0 - - - - - - -
24/10:30am 29.3 SSW 6 13 1013.8 - 0.0 - - - - - - -
24/10:00am 30.7 W 5 8 1013.6 - 0.0 - - - - - - -
24/09:30am 28.9 SSW 4 6 1013.4 - 0.0 - - - - - - -
24/09:00am 28.7 S 3 5 1013.2 - 0.0 - - - - - - -
24/08:30am 27.5 SW 4 6 1012.9 - 0.0 - - - - - - -
24/08:00am 26.7 SSW 3 4 1012.7 - 0.0 - - - - - - -
24/07:30am 25.1 S 3 4 1012.4 - 0.0 - - - - - - -
24/07:00am 24.2 CALM 0 0 1012.1 - 0.0 - - - - - - -
24/06:30am 24.3 CALM 0 0 1011.8 - 0.0 - - - - - - -
24/06:00am 24.6 S 2 4 1011.5 - 0.0 - - - - - - -
24/05:30am 24.4 SSW 3 5 1011.3 - 0.0 - - - - - - -
24/05:00am 24.2 SSW 3 5 1011.2 - 0.0 - - - - - - -
24/04:30am 24.4 S 3 5 1011.2 - 0.0 - - - - - - -
24/04:00am 24.5 S 4 5 1011.2 - 0.0 - - - - - - -
24/03:30am 24.8 SSW 3 5 1011.3 - 0.0 - - - - - - -
24/03:00am 24.3 S 3 5 1011.3 - 0.0 - - - - - - -
24/02:30am 24.3 S 3 5 1011.7 - 0.0 - - - - - - -
24/02:00am 24.4 S 3 4 1011.9 - 0.0 - - - - - - -
24/01:30am 24.6 S 3 5 1012.3 - 0.0 - - - - - - -
24/01:00am 24.8 W 2 5 1012.3 - 0.0 - - - - - - -
24/12:30am 24.8 S 3 4 1012.5 - 0.0 - - - - - - -
24/12:00am 24.4 S 2 4 1012.4 - 0.0 - - - - - - -
 
Date/Time
CST
Temp

°C
Wind Pressure Rain
since 9am
mm
Weather Cloud Vis
km
Sea
Height
m
Swell
Dir
 
Speed
knots
Gust
knots
hPa Trend Height
m
Period
s
Dir
23/11:30pm 23.8 E 2 3 1012.6 - 0.0 - - - - - - -
23/11:00pm 23.9 E 2 3 1012.4 - 0.0 - - - - - - -
23/10:30pm 24.1 ESE 3 4 1012.4 - 0.0 - - - - - - -
23/10:00pm 24.3 ESE 4 5 1012.3 - 0.0 - - - - - - -
23/09:30pm 24.4 SE 4 5 1012.1 - 0.0 - - - - - - -
23/09:00pm 24.6 SE 3 4 1011.8 - 0.0 - - - - - - -
23/08:30pm 24.9 SE 3 4 1011.4 - 0.0 - - - - - - -
23/08:00pm 25.2 S 2 4 1010.9 - 0.0 - - - - - - -
23/07:30pm 25.7 S 3 4 1010.3 - 0.0 - - - - - - -
23/07:00pm 26.7 S 3 3 1010.0 - 0.0 - - - - - - -
23/06:30pm 28.4 S 3 4 1010.0 - 0.0 - - - - - - -
23/06:00pm 30.6 SSW 5 7 1009.9 - 0.0 - - - - - - -
23/05:30pm 31.5 SSW 5 7 1009.7 - 0.0 - - - - - - -
23/05:00pm 32.2 S 5 7 1009.3 - 0.0 - - - - - - -
23/04:30pm 32.6 SSW 5 9 1009.2 - 0.0 - - - - - - -
23/04:00pm 32.8 S 5 8 1009.1 - 0.0 - - - - - - -
23/03:30pm 32.6 S 4 7 1009.2 - 0.0 - - - - - - -
23/03:00pm 32.8 S 6 10 1009.3 - 0.0 - - - - - - -
23/02:30pm 32.8 S 6 9 1009.7 - 0.0 - - - - - - -
23/02:00pm 33.2 SSE 5 9 1010.2 - 0.0 - - - - - - -
23/01:30pm 32.7 S 6 10 1010.7 - 0.0 - - - - - - -
23/01:00pm 32.8 SE 6 10 1011.2 - 0.0 - - - - - - -
23/12:30pm 32.7 S 6 9 1011.7 - 0.0 - - - - - - -
23/12:00pm 32.3 SSE 6 10 1011.9 - 0.0 - - - - - - -
23/11:30am 32.2 SSE 6 11 1012.4 - 0.0 - - - - - - -
23/11:00am 32.0 SSE 5 10 1012.7 - 0.0 - - - - - - -
23/10:30am 31.4 SSE 5 9 1013.1 - 0.0 - - - - - - -
23/10:00am 30.9 S 5 8 1013.2 - 0.0 - - - - - - -
23/09:30am 30.5 S 6 11 1013.3 - 0.0 - - - - - - -
23/09:00am 30.2 S 5 9 1013.0 - 0.0 - - - - - - -
23/08:30am 29.3 SSW 5 8 1013.0 - 0.0 - - - - - - -
23/08:00am 27.9 SSW 5 9 1012.7 - 0.0 - - - - - - -
23/07:30am 27.0 SSW 6 8 1012.3 - 0.0 - - - - - - -
23/07:00am 26.5 S 5 8 1012.1 - 0.0 - - - - - - -
23/06:30am 26.9 S 5 8 1011.7 - 0.0 - - - - - - -
23/06:00am 27.0 SSW 7 11 1011.5 - 0.0 - - - - - - -
23/05:30am 26.7 S 7 10 1011.4 - 0.0 - - - - - - -
23/05:00am 25.8 S 6 9 1011.4 - 0.0 - - - - - - -
23/04:30am 25.1 S 6 9 1011.2 - 0.0 - - - - - - -
23/04:00am 23.6 S 5 6 1011.4 - 0.0 - - - - - - -
23/03:30am 23.2 S 4 5 1011.3 - 0.0 - - - - - - -
23/03:00am 23.3 SSE 4 5 1011.5 - 0.0 - - - - - - -
23/02:30am 23.6 SSE 3 4 1011.8 - 0.0 - - - - - - -
23/02:00am 23.6 SE 3 4 1012.0 - 0.0 - - - - - - -
23/01:30am 23.8 CALM 0 2 1012.1 - 0.0 - - - - - - -
23/01:00am 23.9 CALM 0 0 1012.1 - 0.0 - - - - - - -
23/12:30am 24.1 CALM 0 0 1012.2 - 0.0 - - - - - - -
23/12:00am 24.4 NE 3 4 1012.1 - 0.0 - - - - - - -
 
Date/Time
CST
Temp

°C
Wind Pressure Rain
since 9am
mm
Weather Cloud Vis
km
Sea
Height
m
Swell
Dir
 
Speed
knots
Gust
knots
hPa Trend Height
m
Period
s
Dir
22/11:30pm 24.7 E 3 5 1012.4 - 0.0 - - - - - - -
22/11:00pm 25.3 ENE 5 6 1012.3 - 0.0 - - - - - - -
22/10:30pm 25.1 ENE 4 5 1012.3 - 0.0 - - - - - - -
22/10:00pm 24.8 ENE 5 6 1012.5 - 0.0 - - - - - - -
22/09:30pm 24.6 E 4 5 1012.3 - 0.0 - - - - - - -
22/09:00pm 24.9 ESE 4 5 1012.0 - 0.0 - - - - - - -

Other Formats:

Comma delimited format used in spreadsheet applications
http://www.bom.gov.au/fwo/IDD60701/IDD60701.94122.axf

JavaScript Object Notation format (JSON) in row-major order
http://www.bom.gov.au/fwo/IDD60701/IDD60701.94122.json